createdAt,value
2018-12-23T00:00:48.158Z,101297.82
2018-12-23T00:03:15.632Z,101295.44
2018-12-23T00:05:43.074Z,101299.62
2018-12-23T00:08:10.488Z,101291.39
2018-12-23T00:10:37.905Z,101294.85
2018-12-23T00:13:05.364Z,101295.34
2018-12-23T00:15:32.789Z,101305.36
2018-12-23T00:18:00.220Z,101293.74
2018-12-23T00:20:27.747Z,101299.38
2018-12-23T00:22:55.191Z,101298.55
2018-12-23T00:25:22.629Z,101295.68
2018-12-23T00:27:50.084Z,101308.33
2018-12-23T00:30:17.568Z,101306.05
2018-12-23T00:32:45.924Z,101315.83
2018-12-23T00:35:20.347Z,101306.77
2018-12-23T00:37:42.777Z,101295.30
2018-12-23T00:40:10.202Z,101313.91
2018-12-23T00:42:37.707Z,101315.67
2018-12-23T00:45:06.189Z,101312.11
2018-12-23T00:47:33.609Z,101315.33
2018-12-23T00:50:01.086Z,101326.31
2018-12-23T00:52:28.549Z,101327.97
2018-12-23T00:54:55.987Z,101317.95
2018-12-23T00:57:23.481Z,101321.27
2018-12-23T00:59:50.919Z,101326.31
2018-12-23T01:02:18.991Z,101322.58
2018-12-23T01:04:46.437Z,101323.78
2018-12-23T01:07:15.710Z,101318.53
2018-12-23T01:09:43.178Z,101318.53
2018-12-23T01:12:10.677Z,101321.16
2018-12-23T01:14:38.127Z,101316.97
2018-12-23T01:17:05.591Z,101320.33
2018-12-23T01:19:33.025Z,101321.27
2018-12-23T01:22:00.475Z,101335.37
2018-12-23T01:24:27.903Z,101332.64
2018-12-23T01:26:55.349Z,101343.01
2018-12-23T01:29:22.868Z,101336.67
2018-12-23T01:31:50.328Z,101331.77
2018-12-23T01:34:17.800Z,101333.81
2018-12-23T01:36:45.354Z,101333.81
2018-12-23T01:39:12.967Z,101333.95
2018-12-23T01:41:40.403Z,101344.46
2018-12-23T01:44:07.934Z,101343.25
2018-12-23T01:46:35.355Z,101347.44
2018-12-23T01:49:02.817Z,101349.23
2018-12-23T01:51:30.275Z,101348.85
2018-12-23T01:53:57.733Z,101356.39
2018-12-23T01:56:25.141Z,101355.08
2018-12-23T01:58:52.683Z,101362.61
2018-12-23T02:01:20.085Z,101367.52
2018-12-23T02:03:47.765Z,101370.16
2018-12-23T02:06:15.173Z,101365.11
2018-12-23T02:08:42.692Z,101370.36
2018-12-23T02:11:10.134Z,101376.34
2018-12-23T02:13:37.560Z,101370.73
2018-12-23T02:16:05.030Z,101367.97
2018-12-23T02:18:32.441Z,101368.35
2018-12-23T02:20:59.939Z,101373.36
2018-12-23T02:23:27.426Z,101366.17
2018-12-23T02:25:54.881Z,101358.63
2018-12-23T02:28:22.320Z,101360.81
2018-12-23T02:30:49.816Z,101358.63
2018-12-23T02:33:17.350Z,101359.50
2018-12-23T02:35:44.918Z,101355.90
2018-12-23T02:38:12.363Z,101361.27
2018-12-23T02:40:39.826Z,101364.27
2018-12-23T02:43:07.254Z,101369.63
2018-12-23T02:45:34.741Z,101366.17
2018-12-23T02:48:02.218Z,101363.30
2018-12-23T02:50:29.680Z,101366.80
2018-12-23T02:52:57.104Z,101374.41
2018-12-23T02:55:24.576Z,101371.66
2018-12-23T02:57:52.103Z,101370.20
2018-12-23T03:00:19.601Z,101370.21
2018-12-23T03:02:47.046Z,101380.03
2018-12-23T03:05:14.522Z,101373.70
2018-12-23T03:07:41.959Z,101366.52
2018-12-23T03:10:09.434Z,101366.52
2018-12-23T03:12:36.853Z,101369.52
2018-12-23T03:15:04.380Z,101366.89
2018-12-23T03:17:31.895Z,101365.83
2018-12-23T03:19:59.331Z,101366.91
2018-12-23T03:22:26.774Z,101366.56
2018-12-23T03:24:54.271Z,101366.56
2018-12-23T03:27:21.735Z,101369.81
2018-12-23T03:29:49.197Z,101366.22
2018-12-23T03:32:16.644Z,101367.39
2018-12-23T03:34:44.073Z,101364.77
2018-12-23T03:37:11.561Z,101364.66
2018-12-23T03:39:39.018Z,101362.72
2018-12-23T03:42:07.377Z,101360.72
2018-12-23T03:44:34.811Z,101364.28
2018-12-23T03:47:02.233Z,101364.66
2018-12-23T03:49:29.689Z,101369.33
2018-12-23T03:51:57.110Z,101368.36
2018-12-23T03:54:24.662Z,101373.41
2018-12-23T03:56:52.148Z,101368.87
2018-12-23T03:59:19.563Z,101363.25
2018-12-23T04:01:47.029Z,101357.65
2018-12-23T04:04:14.490Z,101357.75
2018-12-23T04:06:41.946Z,101352.05
2018-12-23T04:09:09.406Z,101345.48
2018-12-23T04:11:36.825Z,101340.72
2018-12-23T04:14:04.272Z,101353.02
2018-12-23T04:16:32.502Z,101344.66
2018-12-23T04:18:59.959Z,101343.34
2018-12-23T04:21:27.527Z,101333.77
2018-12-23T04:23:54.981Z,101333.67
2018-12-23T04:26:22.439Z,101335.22
2018-12-23T04:28:49.874Z,101333.56
2018-12-23T04:31:17.327Z,101331.66
2018-12-23T04:33:44.816Z,101323.78
2018-12-23T04:36:12.265Z,101321.64
2018-12-23T04:38:39.716Z,101328.55
2018-12-23T04:41:07.166Z,101325.20
2018-12-23T04:43:34.623Z,101331.53
2018-12-23T04:46:02.111Z,101329.38
2018-12-23T04:48:29.545Z,101324.95
2018-12-23T04:50:56.995Z,101323.75
2018-12-23T04:53:24.449Z,101315.73
2018-12-23T04:55:51.918Z,101321.71
2018-12-23T04:58:19.360Z,101320.19
2018-12-23T05:00:46.779Z,101327.83
2018-12-23T05:03:14.205Z,101324.13
2018-12-23T05:05:41.632Z,101321.71
2018-12-23T05:08:09.050Z,101316.84
2018-12-23T05:10:36.650Z,101311.45
2018-12-23T05:13:04.217Z,101311.80
2018-12-23T05:15:31.679Z,101308.92
2018-12-23T05:17:59.115Z,101308.33
2018-12-23T05:20:26.574Z,101314.41
2018-12-23T05:22:54.037Z,101321.33
2018-12-23T05:25:21.465Z,101308.19
2018-12-23T05:27:48.881Z,101314.06
2018-12-23T05:30:16.336Z,101318.25
2018-12-23T05:32:43.765Z,101315.23
2018-12-23T05:35:11.316Z,101312.61
2018-12-23T05:37:38.868Z,101320.59
2018-12-23T05:40:06.337Z,101318.45
2018-12-23T05:42:33.778Z,101316.06
2018-12-23T05:45:01.670Z,101315.81
2018-12-23T05:47:29.090Z,101319.16
2018-12-23T05:49:56.600Z,101330.75
2018-12-23T05:52:24.154Z,101322.38
2018-12-23T05:54:51.587Z,101330.75
2018-12-23T05:57:19.063Z,101332.06
2018-12-23T05:59:46.514Z,101330.27
2018-12-23T06:02:13.931Z,101334.34
2018-12-23T06:04:41.439Z,101330.03
2018-12-23T06:07:08.993Z,101340.42
2018-12-23T06:09:36.432Z,101340.30
2018-12-23T06:12:03.894Z,101340.30
2018-12-23T06:14:31.327Z,101340.53
2018-12-23T06:16:58.811Z,101333.03
2018-12-23T06:19:26.240Z,101330.61
2018-12-23T06:21:53.669Z,101331.81
2018-12-23T06:24:21.169Z,101329.78
2018-12-23T06:26:48.597Z,101330.12
2018-12-23T06:29:16.017Z,101330.98
2018-12-23T06:31:43.504Z,101333.37
2018-12-23T06:34:10.917Z,101342.33
2018-12-23T06:36:38.362Z,101336.84
2018-12-23T06:39:06.129Z,101333.73
2018-12-23T06:41:33.619Z,101328.37
2018-12-23T06:44:01.139Z,101325.60
2018-12-23T06:46:28.575Z,101327.73
2018-12-23T06:48:56.078Z,101329.15
2018-12-23T06:51:23.508Z,101333.23
2018-12-23T06:53:50.995Z,101341.11
2018-12-23T06:56:18.435Z,101341.70
2018-12-23T06:58:45.885Z,101343.27
2018-12-23T07:01:13.356Z,101338.01
2018-12-23T07:03:40.815Z,101339.70
2018-12-23T07:06:08.362Z,101332.99
2018-12-23T07:08:36.305Z,101335.76
2018-12-23T07:11:03.921Z,101336.34
2018-12-23T07:13:31.368Z,101333.23
2018-12-23T07:15:58.813Z,101333.22
2018-12-23T07:18:26.256Z,101333.18
2018-12-23T07:20:55.299Z,101332.09
2018-12-23T07:23:22.982Z,101331.28
2018-12-23T07:25:50.473Z,101324.02
2018-12-23T07:28:17.929Z,101332.16
2018-12-23T07:30:45.405Z,101338.14
2018-12-23T07:33:12.830Z,101333.13
2018-12-23T07:35:40.302Z,101335.37
2018-12-23T07:38:07.772Z,101327.05
2018-12-23T07:40:35.200Z,101325.11
2018-12-23T07:43:02.891Z,101331.09
2018-12-23T07:45:30.301Z,101330.02
2018-12-23T07:47:57.800Z,101329.30
2018-12-23T07:50:25.213Z,101325.11
2018-12-23T07:52:52.655Z,101326.41
2018-12-23T07:55:20.087Z,101325.68
2018-12-23T07:57:47.506Z,101324.13
2018-12-23T08:00:14.995Z,101322.47
2018-12-23T08:02:42.440Z,101322.13
2018-12-23T08:05:09.897Z,101319.95
2018-12-23T08:07:37.342Z,101324.27
2018-12-23T08:10:05.050Z,101316.88
2018-12-23T08:12:32.565Z,101320.53
2018-12-23T08:14:59.977Z,101323.29
2018-12-23T08:17:27.475Z,101328.55
2018-12-23T08:19:54.944Z,101319.35
2018-12-23T08:22:22.376Z,101320.87
2018-12-23T08:24:49.811Z,101316.72
2018-12-23T08:27:17.225Z,101315.61
2018-12-23T08:29:44.680Z,101312.28
2018-12-23T08:32:12.112Z,101319.20
2018-12-23T08:34:39.592Z,101313.69
2018-12-23T08:37:07.013Z,101306.73
2018-12-23T08:39:34.493Z,101310.58
2018-12-23T08:42:01.957Z,101308.63
2018-12-23T08:44:29.405Z,101312.33
2018-12-23T08:46:56.830Z,101315.19
2018-12-23T08:49:24.324Z,101311.97
2018-12-23T08:51:51.875Z,101305.39
2018-12-23T08:54:19.346Z,101315.03
2018-12-23T08:56:46.807Z,101310.72
2018-12-23T08:59:14.245Z,101306.39
2018-12-23T09:01:41.706Z,101300.05
2018-12-23T09:04:09.270Z,101303.59
2018-12-23T09:06:36.737Z,101303.25
2018-12-23T09:09:05.513Z,101298.67
2018-12-23T09:11:32.935Z,101302.25
2018-12-23T09:14:00.353Z,101306.54
2018-12-23T09:16:27.985Z,101305.37
2018-12-23T09:18:55.455Z,101306.28
2018-12-23T09:21:22.897Z,101309.83
2018-12-23T09:23:50.369Z,101305.28
2018-12-23T09:26:17.817Z,101302.51
2018-12-23T09:28:45.370Z,101301.16
2018-12-23T09:31:12.804Z,101296.13
2018-12-23T09:33:40.305Z,101296.07
2018-12-23T09:36:07.736Z,101287.92
2018-12-23T09:38:35.175Z,101296.67
2018-12-23T09:41:02.623Z,101295.06
2018-12-23T09:43:30.256Z,101291.34
2018-12-23T09:45:57.692Z,101286.91
2018-12-23T09:48:25.113Z,101281.61
2018-12-23T09:50:52.593Z,101283.38
2018-12-23T09:53:20.039Z,101281.50
2018-12-23T09:55:47.480Z,101279.28
2018-12-23T09:58:15.266Z,101277.09
2018-12-23T10:00:42.695Z,101276.75
2018-12-23T10:03:10.191Z,101268.27
2018-12-23T10:05:37.616Z,101271.98
2018-12-23T10:08:10.011Z,101265.48
2018-12-23T10:10:34.540Z,101258.66
2018-12-23T10:13:02.064Z,101255.35
2018-12-23T10:15:29.517Z,101256.62
2018-12-23T10:17:56.995Z,101250.52
2018-12-23T10:20:24.481Z,101248.20
2018-12-23T10:22:51.992Z,101251.83
2018-12-23T10:25:19.463Z,101243.11
2018-12-23T10:27:46.893Z,101235.95
2018-12-23T10:30:14.312Z,101231.41
2018-12-23T10:32:41.734Z,101242.47
2018-12-23T10:35:09.193Z,101237.20
2018-12-23T10:37:36.742Z,101227.28
2018-12-23T10:40:05.351Z,101217.95
2018-12-23T10:42:32.877Z,101215.88
2018-12-23T10:45:00.347Z,101210.35
2018-12-23T10:47:27.781Z,101207.56
2018-12-23T10:49:55.258Z,101206.73
2018-12-23T10:52:22.696Z,101210.45
2018-12-23T10:54:50.143Z,101207.13
2018-12-23T10:57:17.557Z,101201.25
2018-12-23T10:59:45.084Z,101189.89
2018-12-23T11:02:13.726Z,101184.90
2018-12-23T11:04:41.582Z,101181.63
2018-12-23T11:07:09.030Z,101174.00
2018-12-23T11:09:36.452Z,101164.33
2018-12-23T11:12:03.898Z,101160.38
2018-12-23T11:14:31.310Z,101157.80
2018-12-23T11:16:58.761Z,101147.84
2018-12-23T11:19:26.232Z,101142.73
2018-12-23T11:21:53.680Z,101139.49
2018-12-23T11:24:21.093Z,101124.16
2018-12-23T11:26:48.533Z,101123.70
2018-12-23T11:29:16.039Z,101120.36
2018-12-23T11:31:43.449Z,101117.51
2018-12-23T11:34:10.904Z,101111.27
2018-12-23T11:36:38.333Z,101107.25
2018-12-23T11:39:06.658Z,101112.18
2018-12-23T11:41:34.085Z,101116.06
2018-12-23T11:44:01.553Z,101112.39
2018-12-23T11:46:29.013Z,101109.25
2018-12-23T11:48:56.445Z,101103.99
2018-12-23T11:51:23.931Z,101097.27
2018-12-23T11:53:51.356Z,101094.94
2018-12-23T11:56:18.859Z,101094.00
2018-12-23T11:58:46.285Z,101081.77
2018-12-23T12:01:13.759Z,101080.20
2018-12-23T12:03:41.324Z,101079.09
2018-12-23T12:06:08.734Z,101077.63
2018-12-23T12:08:43.536Z,101072.03
2018-12-23T12:11:05.625Z,101072.86
2018-12-23T12:13:33.058Z,101065.45
2018-12-23T12:16:00.484Z,101064.20
2018-12-23T12:18:27.991Z,101065.74
2018-12-23T12:20:55.447Z,101062.28
2018-12-23T12:23:22.911Z,101062.77
2018-12-23T12:25:50.348Z,101052.74
2018-12-23T12:28:17.840Z,101043.53
2018-12-23T12:30:45.259Z,101037.56
2018-12-23T12:33:12.729Z,101026.07
2018-12-23T12:35:40.207Z,101028.58
2018-12-23T12:38:07.660Z,101030.02
2018-12-23T12:40:35.115Z,101021.30
2018-12-23T12:43:02.552Z,101019.64
2018-12-23T12:45:29.976Z,101021.57
2018-12-23T12:47:57.481Z,101019.09
2018-12-23T12:50:24.954Z,101024.35
2018-12-23T12:52:52.638Z,101015.91
2018-12-23T12:55:20.222Z,100999.42
2018-12-23T12:57:47.645Z,101002.87
2018-12-23T13:00:15.076Z,100994.21
2018-12-23T13:02:42.545Z,100984.61
2018-12-23T13:05:10.078Z,100995.34
2018-12-23T13:07:37.486Z,100990.69
2018-12-23T13:10:05.214Z,100991.03
2018-12-23T13:12:32.659Z,100996.84
2018-12-23T13:15:00.149Z,100986.54
2018-12-23T13:17:27.688Z,100975.08
2018-12-23T13:19:55.136Z,100972.30
2018-12-23T13:22:22.554Z,100978.11
2018-12-23T13:24:50.000Z,100979.42
2018-12-23T13:27:17.599Z,100980.19
2018-12-23T13:29:45.066Z,100971.59
2018-12-23T13:32:12.532Z,100963.52
2018-12-23T13:34:39.965Z,100948.08
2018-12-23T13:37:07.448Z,100950.92
2018-12-23T13:39:34.868Z,100952.63
2018-12-23T13:42:06.237Z,100954.59
2018-12-23T13:44:42.298Z,100953.27
2018-12-23T13:47:31.469Z,100944.75
2018-12-23T13:54:09.531Z,100940.94
2018-12-23T13:57:17.986Z,100937.76
2018-12-23T14:00:25.104Z,100916.19
2018-12-23T14:03:33.637Z,100909.55
2018-12-23T14:06:41.013Z,100901.84
2018-12-23T14:09:30.340Z,100896.80
2018-12-23T14:12:18.145Z,100893.12
2018-12-23T14:14:46.533Z,100892.45
2018-12-23T14:17:14.949Z,100890.50
2018-12-23T14:19:43.359Z,100892.52
2018-12-23T14:22:31.103Z,100885.67
2018-12-23T14:24:59.511Z,100889.62
2018-12-23T14:27:27.924Z,100887.11
2018-12-23T14:29:57.364Z,100888.03
2018-12-23T14:32:26.480Z,100872.38
2018-12-23T14:34:54.879Z,100874.88
2018-12-23T14:37:42.751Z,100858.89
2018-12-23T14:40:11.142Z,100844.56
2018-12-23T14:42:39.545Z,100843.67
2018-12-23T14:45:27.318Z,100848.05
2018-12-23T14:47:56.036Z,100854.73
2018-12-23T14:50:24.423Z,100850.45
2018-12-23T14:53:11.969Z,100855.50
2018-12-23T14:58:27.703Z,100826.86
2018-12-23T15:00:56.105Z,100818.31
2018-12-23T15:03:24.521Z,100812.23
2018-12-23T15:05:52.924Z,100803.64
2018-12-23T15:08:21.345Z,100805.56
2018-12-23T15:10:49.732Z,100804.07
2018-12-23T15:19:39.124Z,100803.16
2018-12-23T15:22:07.856Z,100795.05
2018-12-23T15:24:36.291Z,100799.97
2018-12-23T15:27:04.742Z,100795.70
2018-12-23T15:29:33.487Z,100794.38
2018-12-23T15:32:02.186Z,100789.47
2018-12-23T15:34:30.605Z,100781.25
2018-12-23T15:36:59.022Z,100769.09
2018-12-23T15:39:46.787Z,100758.70
2018-12-23T15:42:15.454Z,100755.25
2018-12-23T15:44:43.874Z,100743.92
2018-12-23T15:47:12.241Z,100751.09
2018-12-23T15:49:40.670Z,100734.39
2018-12-23T15:52:09.069Z,100730.30
2018-12-23T15:54:37.497Z,100727.05
2018-12-23T15:57:05.876Z,100728.22
2018-12-23T15:59:34.529Z,100732.00
2018-12-23T16:02:02.954Z,100739.77
2018-12-23T16:04:31.690Z,100733.19
2018-12-23T16:09:53.167Z,100727.61
2018-12-23T16:12:40.711Z,100707.05
2018-12-23T16:15:09.174Z,100691.44
2018-12-23T16:17:37.595Z,100687.93
2018-12-23T16:20:46.294Z,100692.97
2018-12-23T16:23:14.717Z,100702.16
2018-12-23T16:25:43.401Z,100698.34
2018-12-23T16:28:11.811Z,100692.27
2018-12-23T16:30:59.598Z,100699.81
2018-12-23T16:33:47.367Z,100704.37
2018-12-23T16:36:15.789Z,100703.15
2018-12-23T16:38:44.181Z,100702.45
2018-12-23T16:41:12.608Z,100693.53
2018-12-23T16:43:40.998Z,100686.63
2018-12-23T16:48:56.741Z,100678.75
2018-12-23T16:51:25.160Z,100676.95
2018-12-23T16:53:53.547Z,100665.47
2018-12-23T16:56:21.950Z,100657.59
2018-12-23T17:01:24.245Z,100656.92
2018-12-23T17:04:12.286Z,100657.41
2018-12-23T17:06:40.790Z,100656.71
2018-12-23T17:09:28.863Z,100642.20
2018-12-23T17:11:57.271Z,100628.66
2018-12-23T17:14:25.686Z,100612.73
2018-12-23T17:17:13.225Z,100617.28
2018-12-23T17:19:41.644Z,100619.36
2018-12-23T17:22:10.301Z,100614.27
2018-12-23T17:24:38.720Z,100615.70
2018-12-23T17:27:07.153Z,100608.31
2018-12-23T17:29:35.847Z,100599.95
2018-12-23T17:32:04.537Z,100600.93
2018-12-23T17:34:33.224Z,100609.02
2018-12-23T17:37:01.661Z,100606.94
2018-12-23T17:42:19.767Z,100614.53
2018-12-23T17:44:48.186Z,100626.19
2018-12-23T17:47:35.969Z,100614.72
2018-12-23T17:50:44.408Z,100611.64
2018-12-23T17:56:05.605Z,100626.89
2018-12-23T17:58:34.282Z,100621.28
2018-12-23T18:01:22.071Z,100623.08
2018-12-23T18:03:50.491Z,100618.38
2018-12-23T18:06:19.201Z,100615.17
2018-12-23T18:08:47.614Z,100612.55
2018-12-23T18:11:16.035Z,100615.33
2018-12-23T18:14:03.859Z,100619.87
2018-12-23T18:19:25.318Z,100618.77
2018-12-23T18:22:13.113Z,100617.27
2018-12-23T18:24:41.536Z,100627.00
2018-12-23T18:27:10.231Z,100628.65
2018-12-23T18:32:49.627Z,100638.12
2018-12-23T18:38:24.717Z,100627.45
2018-12-23T18:40:53.122Z,100619.95
2018-12-23T18:43:40.687Z,100610.49
2018-12-23T18:48:56.458Z,100610.42
2018-12-23T18:51:24.854Z,100605.78
2018-12-23T18:54:12.645Z,100603.22
2018-12-23T18:56:41.363Z,100620.75
2018-12-23T18:59:09.758Z,100621.09
2018-12-23T19:04:32.697Z,100616.43
2018-12-23T19:07:22.009Z,100612.95
2018-12-23T19:10:30.465Z,100616.55
2018-12-23T19:13:37.576Z,100620.91
2018-12-23T19:16:46.095Z,100612.66
2018-12-23T19:19:54.900Z,100615.08
2018-12-23T19:23:02.283Z,100629.50
2018-12-23T19:26:09.425Z,100641.05
2018-12-23T19:35:31.231Z,100650.79
2018-12-23T19:38:39.677Z,100661.80
2018-12-23T19:41:48.129Z,100657.75
2018-12-23T19:44:57.165Z,100654.56
2018-12-23T19:48:04.290Z,100658.63
2018-12-23T19:51:11.429Z,100667.56
2018-12-23T19:54:20.200Z,100677.45
2018-12-23T19:57:27.347Z,100658.95
2018-12-23T20:00:35.805Z,100651.84
2018-12-23T20:06:42.076Z,100647.92
2018-12-23T20:09:31.473Z,100652.59
2018-12-23T20:12:11.613Z,100654.73
2018-12-23T20:14:45.874Z,100656.66
2018-12-23T20:17:26.681Z,100652.25
2018-12-23T20:20:01.418Z,100659.38
2018-12-23T20:22:41.187Z,100664.47
2018-12-23T20:25:18.160Z,100675.21
2018-12-23T20:28:09.026Z,100688.06
2018-12-23T20:30:40.614Z,100683.55
2018-12-23T20:33:27.076Z,100681.19
2018-12-23T20:36:15.063Z,100681.77
2018-12-23T20:38:52.759Z,100676.06
2018-12-23T20:41:57.524Z,100677.27
2018-12-23T20:44:43.815Z,100671.06
2018-12-23T20:47:21.167Z,100689.38
2018-12-23T20:50:01.467Z,100700.33
2018-12-23T20:52:47.677Z,100705.46
2018-12-23T20:55:24.945Z,100726.38
2018-12-23T20:58:08.217Z,100738.50
2018-12-23T21:01:02.139Z,100734.23
2018-12-23T21:03:42.498Z,100725.31
2018-12-23T21:06:39.930Z,100732.09
2018-12-23T21:09:44.601Z,100732.20
2018-12-23T21:12:34.499Z,100731.95
2018-12-23T21:15:37.822Z,100739.31
2018-12-23T21:18:25.824Z,100742.13
2018-12-23T21:21:15.455Z,100736.18
2018-12-23T21:24:12.300Z,100740.10
2018-12-23T21:26:49.680Z,100754.25
2018-12-23T21:29:36.922Z,100763.99
2018-12-23T21:32:38.323Z,100755.20
2018-12-23T21:35:09.907Z,100755.94
2018-12-23T21:38:12.290Z,100758.28
2018-12-23T21:40:55.163Z,100765.30
2018-12-23T21:43:49.203Z,100758.89
2018-12-23T21:46:23.388Z,100760.55
2018-12-23T21:49:00.511Z,100755.66
2018-12-23T21:51:50.215Z,100773.39
2018-12-23T21:54:27.451Z,100776.83
2018-12-23T21:57:10.747Z,100797.05
2018-12-23T21:59:47.956Z,100794.56
2018-12-23T22:02:28.037Z,100804.17
2018-12-23T22:05:05.368Z,100795.39
2018-12-23T22:07:54.685Z,100810.13
2018-12-23T22:10:38.049Z,100808.81
2018-12-23T22:13:27.333Z,100802.99
2018-12-23T22:15:55.737Z,100807.27
2018-12-23T22:18:24.119Z,100826.76
2018-12-23T22:20:52.523Z,100827.59
2018-12-23T22:23:20.933Z,100842.60
2018-12-23T22:25:49.345Z,100841.78
2018-12-23T22:28:17.732Z,100841.19
2018-12-23T22:30:46.154Z,100849.63
2018-12-23T22:33:14.558Z,100848.91
2018-12-23T22:35:43.083Z,100875.94
2018-12-23T22:38:11.452Z,100865.95
2018-12-23T22:40:39.952Z,100860.61
2018-12-23T22:43:08.362Z,100866.09
2018-12-23T22:45:37.024Z,100856.69
2018-12-23T22:48:05.495Z,100872.62
2018-12-23T22:50:34.156Z,100872.75
2018-12-23T22:53:02.801Z,100887.01
2018-12-23T22:55:31.200Z,100895.22
2018-12-23T22:57:59.623Z,100894.49
2018-12-23T23:00:31.590Z,100912.94
2018-12-23T23:03:08.780Z,100913.88
2018-12-23T23:05:30.672Z,100913.98
2018-12-23T23:07:59.076Z,100920.27
2018-12-23T23:10:27.470Z,100922.87
2018-12-23T23:12:56.144Z,100916.69
2018-12-23T23:15:24.555Z,100914.63
2018-12-23T23:17:52.960Z,100917.98
2018-12-23T23:20:21.382Z,100924.66
2018-12-23T23:22:49.770Z,100930.72
2018-12-23T23:25:18.181Z,100940.45
2018-12-23T23:27:46.570Z,100942.36
2018-12-23T23:30:14.970Z,100941.78
2018-12-23T23:32:43.625Z,100942.00
2018-12-23T23:35:12.271Z,100949.37
2018-12-23T23:37:40.934Z,100939.16
2018-12-23T23:40:09.598Z,100956.86
2018-12-23T23:42:38.015Z,100959.83
2018-12-23T23:45:06.406Z,100962.34
2018-12-23T23:47:34.808Z,100953.55
2018-12-23T23:50:03.205Z,100950.45
2018-12-23T23:52:31.622Z,100961.51
2018-12-23T23:55:00.032Z,100967.56
2018-12-23T23:57:28.436Z,100970.53
2018-12-23T23:59:56.831Z,100979.36
